Latest Weather Observations for Kurnell

IDN60901

Issued at 6:51 am EDT Thursday 18 December 2014 (issued every 10 minutes, with the page automatically refreshed every 10 minutes)

About weather observations | Map of Sydney area stations | Latest observations for Sydney area | Other Formats
Station Details ID: 066043 Name: KURNELL AWS Lat: -34.00 Lon: 151.21 Height: 4.0 m
Data from the previous 72 hours. | See also: Recent months for locations in New South Wales
Date/Time
EDT
Tmp

°C
App
Tmp
°C
Dew
Point
°C
Rel
Hum
%
Delta-T

°C
Wind Press
QNH
hPa
Press
MSL
hPa
Rain
since
9 am
mm
Dir
 
Spd
km/h
Gust
km/h
Spd
kts
Gust
kts
18/06:30am - - - - - CALM 0 0 0 0 - - -
18/06:00am - - - - - SW 6 11 3 6 - - -
18/05:30am - - - - - SW 7 11 4 6 - - -
18/05:00am - - - - - SW 9 9 5 5 - - -
18/04:30am - - - - - SSE 6 7 3 4 - - -
18/04:00am - - - - - SE 9 11 5 6 - - -
18/03:30am - - - - - E 9 11 5 6 - - -
18/03:00am - - - - - ENE 15 22 8 12 - - -
18/02:30am - - - - - NE 13 15 7 8 - - -
18/02:00am - - - - - NE 11 13 6 7 - - -
18/01:30am - - - - - ENE 13 17 7 9 - - -
18/01:00am - - - - - ENE 13 19 7 10 - - -
18/12:30am - - - - - ENE 11 19 6 10 - - -
18/12:00am - - - - - ESE 9 11 5 6 - - -
 
Date/Time
EDT
Tmp

°C
App
Tmp
°C
Dew
Point
°C
Rel
Hum
%
Delta-T

°C
Wind Press
QNH
hPa
Press
MSL
hPa
Rain
since
9 am
mm
Dir
 
Spd
km/h
Gust
km/h
Spd
kts
Gust
kts
17/11:30pm - - - - - E 11 17 6 9 - - -
17/11:00pm - - - - - E 9 11 5 6 - - -
17/10:30pm - - - - - ENE 17 24 9 13 - - -
17/10:00pm - - - - - ESE 13 17 7 9 - - -
17/09:30pm - - - - - SE 15 19 8 10 - - -
17/09:00pm - - - - - ESE 13 19 7 10 - - -
17/08:30pm - - - - - ESE 13 17 7 9 - - -
17/08:00pm - - - - - SE 15 20 8 11 - - -
17/07:30pm - - - - - SE 17 20 9 11 - - -
17/07:00pm - - - - - SE 19 26 10 14 - - -
17/06:30pm - - - - - SE 20 26 11 14 - - -
17/06:00pm - - - - - SSE 19 28 10 15 - - -
17/05:30pm - - - - - SSE 20 30 11 16 - - -
17/05:00pm - - - - - SSE 22 32 12 17 - - -
17/04:30pm - - - - - SSE 20 32 11 17 - - -
17/04:00pm - - - - - SSE 26 33 14 18 - - -
17/03:30pm - - - - - SSE 26 35 14 19 - - -
17/03:00pm - - - - - SSE 26 35 14 19 - - -
17/02:30pm - - - - - SSE 24 35 13 19 - - -
17/02:00pm - - - - - SSE 26 37 14 20 - - -
17/01:30pm - - - - - SSE 28 39 15 21 - - -
17/01:00pm - - - - - SSE 28 39 15 21 - - -
17/12:30pm - - - - - S 26 39 14 21 - - -
17/12:19pm - - - - - S 28 48 15 26 - - -
17/12:00pm - - - - - S 32 41 17 22 - - -
17/11:30am - - - - - S 30 43 16 23 - - -
17/11:00am - - - - - S 30 43 16 23 - - -
17/10:30am - - - - - S 33 46 18 25 - - -
17/10:00am - - - - - S 35 48 19 26 - - -
17/09:50am - - - - - S 35 54 19 29 - - -
17/09:30am - - - - - S 37 54 20 29 - - -
17/09:06am - - - - - S 37 56 20 30 - - -
17/09:00am - - - - - S 39 56 21 30 - - -
17/08:30am - - - - - S 39 57 21 31 - - -
17/08:27am - - - - - S 39 57 21 31 - - -
17/08:00am - - - - - S 41 56 22 30 - - -
17/07:35am - - - - - S 43 61 23 33 - - -
17/07:30am - - - - - S 41 57 22 31 - - -
17/07:00am - - - - - S 43 57 23 31 - - -
17/06:47am - - - - - S 41 59 22 32 - - -
17/06:30am - - - - - S 39 52 21 28 - - -
17/06:00am - - - - - SSW 44 59 24 32 - - -
17/05:30am - - - - - SSW 44 63 24 34 - - -
17/05:19am - - - - - SSW 44 63 24 34 - - -
17/05:00am - - - - - SSW 46 57 25 31 - - -
17/04:43am - - - - - SSW 43 61 23 33 - - -
17/04:30am - - - - - SSW 39 48 21 26 - - -
17/04:12am - - - - - WNW 15 54 8 29 - - -
17/04:00am - - - - - NW 9 13 5 7 - - -
17/03:30am - - - - - NW 13 17 7 9 - - -
17/03:00am - - - - - NW 15 17 8 9 - - -
17/02:30am - - - - - NNW 11 15 6 8 - - -
17/02:00am - - - - - NW 13 15 7 8 - - -
17/01:30am - - - - - NW 13 15 7 8 - - -
17/01:00am - - - - - WNW 17 19 9 10 - - -
17/12:30am - - - - - W 9 11 5 6 - - -
17/12:00am - - - - - N 7 11 4 6 - - -
 
Date/Time
EDT
Tmp

°C
App
Tmp
°C
Dew
Point
°C
Rel
Hum
%
Delta-T

°C
Wind Press
QNH
hPa
Press
MSL
hPa
Rain
since
9 am
mm
Dir
 
Spd
km/h
Gust
km/h
Spd
kts
Gust
kts
16/11:30pm - - - - - NW 4 9 2 5 - - -
16/11:00pm - - - - - NE 13 17 7 9 - - -
16/10:30pm - - - - - ENE 11 13 6 7 - - -
16/10:00pm - - - - - ENE 9 11 5 6 - - -
16/09:30pm - - - - - NNE 11 15 6 8 - - -
16/09:00pm - - - - - NE 17 24 9 13 - - -
16/08:30pm - - - - - NE 19 24 10 13 - - -
16/08:00pm - - - - - NNE 26 33 14 18 - - -
16/07:30pm - - - - - NE 39 50 21 27 - - -
16/07:00pm - - - - - NNE 43 54 23 29 - - -
16/06:32pm - - - - - NE 46 65 25 35 - - -
16/06:30pm - - - - - NE 48 65 26 35 - - -
16/06:05pm - - - - - NE 54 72 29 39 - - -
16/06:00pm - - - - - NE 56 69 30 37 - - -
16/05:30pm - - - - - NE 57 76 31 41 - - -
16/05:29pm - - - - - NE 57 76 31 41 - - -
16/05:00pm - - - - - NE 59 76 32 41 - - -
16/04:30pm - - - - - NE 57 76 31 41 - - -
16/04:00pm - - - - - NE 59 78 32 42 - - -
16/03:30pm - - - - - NE 57 78 31 42 - - -
16/03:12pm - - - - - NE 57 76 31 41 - - -
16/03:00pm - - - - - NE 59 72 32 39 - - -
16/02:30pm - - - - - NE 56 69 30 37 - - -
16/02:16pm - - - - - NE 54 72 29 39 - - -
16/02:00pm - - - - - NE 54 69 29 37 - - -
16/01:46pm - - - - - NE 52 70 28 38 - - -
16/01:30pm - - - - - NE 54 65 29 35 - - -
16/01:05pm - - - - - NE 48 67 26 36 - - -
16/01:00pm - - - - - NE 44 57 24 31 - - -
16/12:46pm - - - - - NE 44 63 24 34 - - -
16/12:30pm - - - - - NE 41 54 22 29 - - -
16/12:00pm - - - - - NE 41 54 22 29 - - -
16/11:30am - - - - - NE 41 52 22 28 - - -
16/11:00am - - - - - NE 30 35 16 19 - - -
16/10:30am - - - - - NE 32 39 17 21 - - -
16/10:00am - - - - - NE 43 50 23 27 - - -
16/09:48am - - - - - ENE 37 48 20 26 - - -
16/09:30am - - - - - NE 26 30 14 16 - - -
16/09:00am - - - - - NNE 30 39 16 21 - - -
16/08:30am - - - - - NE 32 37 17 20 - - -
16/08:00am - - - - - NNE 33 43 18 23 - - -
16/07:30am - - - - - NNE 32 41 17 22 - - -
16/07:00am - - - - - NNE 28 30 15 16 - - -
16/06:30am - - - - - NNE 26 32 14 17 - - -
16/06:00am - - - - - NNE 24 30 13 16 - - -
16/05:30am - - - - - NNE 26 33 14 18 - - -
16/05:00am - - - - - NNE 26 32 14 17 - - -
16/04:30am - - - - - NE 26 33 14 18 - - -
16/04:00am - - - - - NNE 22 28 12 15 - - -
16/03:30am - - - - - NNE 24 32 13 17 - - -
16/03:00am - - - - - NNE 26 32 14 17 - - -
16/02:30am - - - - - NNE 26 30 14 16 - - -
16/02:00am - - - - - NNE 22 28 12 15 - - -
16/01:30am - - - - - NNE 22 28 12 15 - - -
16/01:00am - - - - - NNE 22 28 12 15 - - -
16/12:30am - - - - - NNE 22 32 12 17 - - -
16/12:00am - - - - - N 20 26 11 14 - - -
 
Date/Time
EDT
Tmp

°C
App
Tmp
°C
Dew
Point
°C
Rel
Hum
%
Delta-T

°C
Wind Press
QNH
hPa
Press
MSL
hPa
Rain
since
9 am
mm
Dir
 
Spd
km/h
Gust
km/h
Spd
kts
Gust
kts
15/11:30pm - - - - - NNE 22 28 12 15 - - -
15/11:00pm - - - - - NNE 24 30 13 16 - - -
15/10:30pm - - - - - NE 26 35 14 19 - - -
15/10:00pm - - - - - NE 24 30 13 16 - - -
15/09:30pm - - - - - NE 26 32 14 17 - - -
15/09:00pm - - - - - NNE 26 32 14 17 - - -
15/08:30pm - - - - - NNE 28 33 15 18 - - -
15/08:00pm - - - - - NE 32 37 17 20 - - -
15/07:30pm - - - - - NE 32 39 17 21 - - -
15/07:00pm - - - - - NE 32 39 17 21 - - -
15/06:30pm - - - - - NE 32 39 17 21 - - -
15/06:00pm - - - - - NE 32 37 17 20 - - -
15/05:30pm - - - - - NE 32 37 17 20 - - -
15/05:00pm - - - - - NE 30 37 16 20 - - -
15/04:30pm - - - - - ENE 35 44 19 24 - - -
15/04:00pm - - - - - ENE 32 39 17 21 - - -
15/03:30pm - - - - - ENE 33 37 18 20 - - -
15/03:00pm - - - - - ENE 28 35 15 19 - - -
15/02:30pm - - - - - ENE 26 32 14 17 - - -
15/02:00pm - - - - - ENE 28 33 15 18 - - -
15/01:30pm - - - - - ENE 28 33 15 18 - - -
15/01:00pm - - - - - NE 24 32 13 17 - - -
15/12:30pm - - - - - NE 24 32 13 17 - - -
15/12:00pm - - - - - NE 26 32 14 17 - - -
15/11:30am - - - - - NE 28 32 15 17 - - -
15/11:00am - - - - - NE 26 32 14 17 - - -
15/10:30am - - - - - NE 26 30 14 16 - - -
15/10:00am - - - - - NE 20 26 11 14 - - -
15/09:30am - - - - - NE 15 19 8 10 - - -
15/09:00am - - - - - NNE 9 13 5 7 - - -
15/08:30am - - - - - WNW 7 9 4 5 - - -
15/08:00am - - - - - N 7 9 4 5 - - -
15/07:30am - - - - - W 6 9 3 5 - - -
15/07:00am - - - - - SW 6 7 3 4 - - -

Latest Capital City Observations: Canberra | Sydney | Melbourne | Brisbane | Adelaide | Perth | Hobart | Darwin

Other Formats:

Comma delimited format used in spreadsheet applications
http://www.bom.gov.au/fwo/IDN60901/IDN60901.95756.axf

JavaScript Object Notation format (JSON) in row-major order
http://www.bom.gov.au/fwo/IDN60901/IDN60901.95756.json